F/V Fleur Des Vagues — FPEJ — position and weather

sailwx.info

Track history (hours):
 
Tides and Currents Weather Stations Pressure Air Temp Water Temp Dewpoint Dewpoint Depression Visibility Wind Speed Wind Dir Waves Ship Positions

F/V Fleur Des Vagues

Last reported at 2015-Aug-01 07:33 UTC. Time now 2015-Aug-01 07:48 UTC.
Position N 46°34' W 002°03'.

Length 16 m.

Type: Fishing. MMSI: 227893000.

Date/timePositionNaut miles runAvg speedWind from/ knotsBaromVisibWave heightAir tempDewpointWater temp
2015-Aug-01 07:33N 46°34' W 002°03'1 0.7
2015-Aug-01 06:34N 46°35' W 002°04'2 1.8
2015-Aug-01 05:33N 46°34' W 002°02'2 1.7
2015-Aug-01 04:34N 46°34' W 002°04'2 1.8
2015-Aug-01 03:33N 46°33' W 002°02'1 1.3
2015-Aug-01 02:33N 46°34' W 002°04'3 2.9
2015-Aug-01 01:33N 46°32' W 002°00'8 8.2
2015-Aug-01 00:33N 46°29' W 001°50'2 2.3
2015-Jul-31 23:33N 46°30' W 001°47'0 0.0
2015-Jul-31 22:33N 46°30' W 001°47'0 0.0
2015-Jul-31 21:33N 46°30' W 001°47'0 0.0
2015-Jul-31 20:33N 46°30' W 001°47'0 0.0
2015-Jul-31 19:33N 46°30' W 001°47'0 0.0
2015-Jul-31 18:33N 46°30' W 001°47'0 0.0
2015-Jul-31 17:33N 46°30' W 001°47'0 0.0
2015-Jul-31 16:33N 46°30' W 001°47'0 0.0
2015-Jul-31 15:33N 46°30' W 001°47'0 0.0
2015-Jul-31 14:33N 46°30' W 001°47'0 0.0
2015-Jul-31 13:33N 46°30' W 001°47'0 0.0
2015-Jul-31 12:33N 46°30' W 001°47'2 1.6
2015-Jul-31 11:33N 46°29' W 001°49'9 8.9
2015-Jul-31 10:33N 46°32' W 002°01'2 2.2
2015-Jul-31 09:33N 46°34' W 002°03'1 1.4
2015-Jul-31 08:33N 46°34' W 002°05'7 5.8
2015-Jul-31 07:22N 46°40' W 002°11'1 1.5
2015-Jul-31 06:33N 46°39' W 002°10'1 1.4
2015-Jul-31 05:33N 46°40' W 002°12'1 0.7
2015-Jul-31 04:32N 46°39' W 002°11'1 0.6
2015-Jul-31 03:29N 46°39' W 002°10'1 0.9
2015-Jul-31 02:33N 46°39' W 002°11'1 1.2
2015-Jul-31 01:33N 46°39' W 002°10'1 0.9
2015-Jul-31 00:33N 46°39' W 002°10'0 0.1
2015-Jul-30 23:33N 46°39' W 002°10'0 0.0
2015-Jul-30 22:33N 46°39' W 002°10'0 0.1
2015-Jul-30 21:33N 46°39' W 002°10'0 0.0
2015-Jul-30 20:33N 46°39' W 002°10'0 0.0
2015-Jul-30 19:33N 46°39' W 002°10'0 0.0
2015-Jul-30 18:33N 46°39' W 002°10'0 0.0
2015-Jul-30 17:33N 46°39' W 002°10'0 0.0
2015-Jul-30 16:33N 46°39' W 002°10'0 0.0
2015-Jul-30 15:25N 46°39' W 002°10'0 0.1
2015-Jul-30 14:17N 46°39' W 002°10'1 1.6
2015-Jul-30 13:33N 46°38' W 002°10'1 0.9
2015-Jul-30 12:33N 46°39' W 002°10'2 2.0
2015-Jul-30 11:33N 46°38' W 002°08'8 7.8
2015-Jul-30 10:33N 46°31' W 002°02'1 1.4
2015-Jul-30 09:33N 46°31' W 002°03'1 0.6
2015-Jul-30 08:33N 46°30' W 002°04'2 1.6
2015-Jul-30 07:33N 46°31' W 002°02'1 1.2
2015-Jul-30 06:33N 46°30' W 002°03'1 1.2
2015-Jul-30 05:33N 46°30' W 002°05'1 1.1
2015-Jul-30 04:33N 46°30' W 002°03'1 1.2
2015-Jul-30 03:33N 46°30' W 002°02'2 1.5
2015-Jul-30 02:33N 46°29' W 002°03'0 0.4
2015-Jul-30 01:34N 46°30' W 002°03'2 1.5
2015-Jul-30 00:33N 46°30' W 002°01'0 0.1
2015-Jul-29 23:33N 46°30' W 002°01'0 0.0
2015-Jul-29 22:33N 46°30' W 002°01'0 0.0
2015-Jul-29 21:33N 46°30' W 002°01'0 0.0
2015-Jul-29 20:33N 46°30' W 002°01'0 0.0
2015-Jul-29 19:33N 46°30' W 002°01'0 0.0
2015-Jul-29 18:34N 46°30' W 002°01'0 0.0
2015-Jul-29 17:33N 46°30' W 002°01'0 0.0
2015-Jul-29 16:33N 46°30' W 002°01'2 1.6
2015-Jul-29 15:33N 46°30' W 002°03'1 0.8
2015-Jul-29 14:33N 46°31' W 002°03'8 7.3
2015-Jul-29 13:25N 46°38' W 002°09'3 2.3
2015-Jul-29 12:17N 46°40' W 002°12'1 1.2
2015-Jul-29 11:25N 46°39' W 002°11'1 1.0
2015-Jul-29 10:33N 46°38' W 002°10'1 1.5
2015-Jul-29 09:32N 46°39' W 002°11'1 1.2
2015-Jul-29 08:33N 46°39' W 002°10'0 0.5
2015-Jul-29 07:33N 46°38' W 002°10'1 1.1
2015-Jul-29 06:33N 46°39' W 002°11'1 1.3
2015-Jul-29 05:32N 46°40' W 002°12'1 1.4
2015-Jul-29 04:33N 46°39' W 002°11'0 0.4
2015-Jul-29 03:29N 46°38' W 002°11'1 1.0
2015-Jul-29 02:30N 46°39' W 002°12'1 1.3
2015-Jul-29 01:34N 46°40' W 002°13'0 0.3
2015-Jul-29 00:33N 46°40' W 002°12'0 0.0
2015-Jul-28 23:34N 46°40' W 002°12'0 0.0
2015-Jul-28 22:33N 46°40' W 002°12'0 0.0
2015-Jul-28 21:33N 46°40' W 002°12'0 0.0
2015-Jul-28 20:31N 46°40' W 002°12'1 0.4
2015-Jul-28 16:32N 46°40' W 002°11'2 1.6
2015-Jul-28 15:33N 46°38' W 002°10'2 1.8
2015-Jul-28 14:19N 46°40' W 002°12'2 1.4
2015-Jul-28 13:15N 46°39' W 002°11'4 0.2
2015-Jul-27 13:03N 46°42' W 002°14'4 7.9
2015-Jul-27 12:33N 46°39' W 002°10'8 8.1
2015-Jul-27 11:33N 46°34' W 002°01'8 7.9
2015-Jul-27 10:33N 46°29' W 001°52'4 3.9
2015-Jul-27 09:33N 46°30' W 001°47'0 0.0
2015-Jul-27 08:33N 46°30' W 001°47'0 0.0
2015-Jul-27 07:33N 46°30' W 001°47'0 0.0
2015-Jul-27 06:33N 46°30' W 001°47'  
Track history (hours):
 
Tides and Currents Weather Stations Pressure Air Temp Water Temp Dewpoint Dewpoint Depression Visibility Wind Speed Wind Dir Waves Ship Positions

F/V Fleur Des Vagues

Last reported at 2015-Aug-01 07:33 UTC. Time now 2015-Aug-01 07:48 UTC.
Position N 46°34' W 002°03'.

Length 16 m.

Type: Fishing. MMSI: 227893000.

Date/timePositionNaut miles runAvg speedWind from/ knotsBaromVisibWave heightAir tempDewpointWater temp
2015-Aug-01 07:33N 46°34' W 002°03'1 0.7
2015-Aug-01 06:34N 46°35' W 002°04'2 1.8
2015-Aug-01 05:33N 46°34' W 002°02'2 1.7
2015-Aug-01 04:34N 46°34' W 002°04'2 1.8
2015-Aug-01 03:33N 46°33' W 002°02'1 1.3
2015-Aug-01 02:33N 46°34' W 002°04'3 2.9
2015-Aug-01 01:33N 46°32' W 002°00'8 8.2
2015-Aug-01 00:33N 46°29' W 001°50'2 2.3
2015-Jul-31 23:33N 46°30' W 001°47'0 0.0
2015-Jul-31 22:33N 46°30' W 001°47'0 0.0
2015-Jul-31 21:33N 46°30' W 001°47'0 0.0
2015-Jul-31 20:33N 46°30' W 001°47'0 0.0
2015-Jul-31 19:33N 46°30' W 001°47'0 0.0
2015-Jul-31 18:33N 46°30' W 001°47'0 0.0
2015-Jul-31 17:33N 46°30' W 001°47'0 0.0
2015-Jul-31 16:33N 46°30' W 001°47'0 0.0
2015-Jul-31 15:33N 46°30' W 001°47'0 0.0
2015-Jul-31 14:33N 46°30' W 001°47'0 0.0
2015-Jul-31 13:33N 46°30' W 001°47'0 0.0
2015-Jul-31 12:33N 46°30' W 001°47'2 1.6
2015-Jul-31 11:33N 46°29' W 001°49'9 8.9
2015-Jul-31 10:33N 46°32' W 002°01'2 2.2
2015-Jul-31 09:33N 46°34' W 002°03'1 1.4
2015-Jul-31 08:33N 46°34' W 002°05'7 5.8
2015-Jul-31 07:22N 46°40' W 002°11'1 1.5
2015-Jul-31 06:33N 46°39' W 002°10'1 1.4
2015-Jul-31 05:33N 46°40' W 002°12'1 0.7
2015-Jul-31 04:32N 46°39' W 002°11'1 0.6
2015-Jul-31 03:29N 46°39' W 002°10'1 0.9
2015-Jul-31 02:33N 46°39' W 002°11'1 1.2
2015-Jul-31 01:33N 46°39' W 002°10'1 0.9
2015-Jul-31 00:33N 46°39' W 002°10'0 0.1
2015-Jul-30 23:33N 46°39' W 002°10'0 0.0
2015-Jul-30 22:33N 46°39' W 002°10'0 0.1
2015-Jul-30 21:33N 46°39' W 002°10'0 0.0
2015-Jul-30 20:33N 46°39' W 002°10'0 0.0
2015-Jul-30 19:33N 46°39' W 002°10'0 0.0
2015-Jul-30 18:33N 46°39' W 002°10'0 0.0
2015-Jul-30 17:33N 46°39' W 002°10'0 0.0
2015-Jul-30 16:33N 46°39' W 002°10'0 0.0
2015-Jul-30 15:25N 46°39' W 002°10'0 0.1
2015-Jul-30 14:17N 46°39' W 002°10'1 1.6
2015-Jul-30 13:33N 46°38' W 002°10'1 0.9
2015-Jul-30 12:33N 46°39' W 002°10'2 2.0
2015-Jul-30 11:33N 46°38' W 002°08'8 7.8
2015-Jul-30 10:33N 46°31' W 002°02'1 1.4
2015-Jul-30 09:33N 46°31' W 002°03'1 0.6
2015-Jul-30 08:33N 46°30' W 002°04'2 1.6
2015-Jul-30 07:33N 46°31' W 002°02'1 1.2
2015-Jul-30 06:33N 46°30' W 002°03'1 1.2
2015-Jul-30 05:33N 46°30' W 002°05'1 1.1
2015-Jul-30 04:33N 46°30' W 002°03'1 1.2
2015-Jul-30 03:33N 46°30' W 002°02'2 1.5
2015-Jul-30 02:33N 46°29' W 002°03'0 0.4
2015-Jul-30 01:34N 46°30' W 002°03'2 1.5
2015-Jul-30 00:33N 46°30' W 002°01'0 0.1
2015-Jul-29 23:33N 46°30' W 002°01'0 0.0
2015-Jul-29 22:33N 46°30' W 002°01'0 0.0
2015-Jul-29 21:33N 46°30' W 002°01'0 0.0
2015-Jul-29 20:33N 46°30' W 002°01'0 0.0
2015-Jul-29 19:33N 46°30' W 002°01'0 0.0
2015-Jul-29 18:34N 46°30' W 002°01'0 0.0
2015-Jul-29 17:33N 46°30' W 002°01'0 0.0
2015-Jul-29 16:33N 46°30' W 002°01'2 1.6
2015-Jul-29 15:33N 46°30' W 002°03'1 0.8
2015-Jul-29 14:33N 46°31' W 002°03'8 7.3
2015-Jul-29 13:25N 46°38' W 002°09'3 2.3
2015-Jul-29 12:17N 46°40' W 002°12'1 1.2
2015-Jul-29 11:25N 46°39' W 002°11'1 1.0
2015-Jul-29 10:33N 46°38' W 002°10'1 1.5
2015-Jul-29 09:32N 46°39' W 002°11'1 1.2
2015-Jul-29 08:33N 46°39' W 002°10'0 0.5
2015-Jul-29 07:33N 46°38' W 002°10'1 1.1
2015-Jul-29 06:33N 46°39' W 002°11'1 1.3
2015-Jul-29 05:32N 46°40' W 002°12'1 1.4
2015-Jul-29 04:33N 46°39' W 002°11'0 0.4
2015-Jul-29 03:29N 46°38' W 002°11'1 1.0
2015-Jul-29 02:30N 46°39' W 002°12'1 1.3
2015-Jul-29 01:34N 46°40' W 002°13'0 0.3
2015-Jul-29 00:33N 46°40' W 002°12'0 0.0
2015-Jul-28 23:34N 46°40' W 002°12'0 0.0
2015-Jul-28 22:33N 46°40' W 002°12'0 0.0
2015-Jul-28 21:33N 46°40' W 002°12'0 0.0
2015-Jul-28 20:31N 46°40' W 002°12'1 0.4
2015-Jul-28 16:32N 46°40' W 002°11'2 1.6
2015-Jul-28 15:33N 46°38' W 002°10'2 1.8
2015-Jul-28 14:19N 46°40' W 002°12'2 1.4
2015-Jul-28 13:15N 46°39' W 002°11'4 0.2
2015-Jul-27 13:03N 46°42' W 002°14'4 7.9
2015-Jul-27 12:33N 46°39' W 002°10'8 8.1
2015-Jul-27 11:33N 46°34' W 002°01'8 7.9
2015-Jul-27 10:33N 46°29' W 001°52'4 3.9
2015-Jul-27 09:33N 46°30' W 001°47'0 0.0
2015-Jul-27 08:33N 46°30' W 001°47'0 0.0
2015-Jul-27 07:33N 46°30' W 001°47'0 0.0
2015-Jul-27 06:33N 46°30' W 001°47'  

Dump ship's entire track history